Etusivu
METAR-TAF:

METAR-TAF

Lentoasemat :

Newport, Vermont, Yhdysvallat

Leveyspiiri: 44-53-20N, Pituuspiiri: 072-13-45W, korkeus merenpinnasta: 283 m

Tämänhetkinen sää

Tämä raportti tehtiin 13 minuuttia sitten, kello 03.35 UTC
tyyntä
Lämpötila 0°C
Kosteus 100%
Ilmanpaine 986 hPa
Näkyvyys: 16.1 km
Pilvistä 2400 ft:n korkeudessa
heikkoa lumisadetta

METAR: KEFK 100335Z AUTO 00000KT 10SM -SN OVC024 00/00 A2911 RMK AO2 T00000000

Aika: 23:48 (03:48 UTC)


TAF: puuttuu

Säähavainnot ja -ennusteet yli 4000 lentoasemalta (METAR- ja TAF-raportit).

Käytössä olevat sääasemat on merkitty karttaan keltaisilla ja punaisilla pisteillä.

Aseta hiiri pisteen päälle nähdäksesi sääaseman nimen.

Klikkaa sitten nähdäksesi säähavainnot ja -ennusteet.

Kartan vaihtaminen: klikkaa mustalla rastilla varustettuja vihreitä pisteitä, niin voit zoomata sisään; viivalla varustettua vihreää pistettä, niin voit zoomata ulos tai vihreitä nuolia, niin pääset viereisille kartoille.


METAR-TAF: